createdAt,value
2023-03-29T00:00:37.761Z,101363.78
2023-03-29T00:03:04.671Z,101361.63
2023-03-29T00:05:34.939Z,101356.09
2023-03-29T00:08:03.928Z,101364.94
2023-03-29T00:10:31.137Z,101356.44
2023-03-29T00:12:57.984Z,101351.09
2023-03-29T00:15:24.825Z,101350.31
2023-03-29T00:17:51.615Z,101349.31
2023-03-29T00:20:18.407Z,101344.75
2023-03-29T00:22:46.644Z,101342.63
2023-03-29T00:25:13.451Z,101325.91
2023-03-29T00:27:40.236Z,101328.66
2023-03-29T00:30:06.989Z,101329.31
2023-03-29T00:32:34.070Z,101338.00
2023-03-29T00:35:00.958Z,101332.06
2023-03-29T00:37:29.768Z,101322.34
2023-03-29T00:39:56.752Z,101317.66
2023-03-29T00:42:23.527Z,101322.53
2023-03-29T00:44:50.386Z,101318.72
2023-03-29T00:47:18.120Z,101319.34
2023-03-29T00:49:44.884Z,101311.56
2023-03-29T00:52:11.664Z,101306.78
2023-03-29T00:54:38.486Z,101310.06
2023-03-29T00:57:06.644Z,101292.06
2023-03-29T00:59:35.370Z,101295.28
2023-03-29T01:02:02.170Z,101295.19
2023-03-29T01:04:29.526Z,101293.94
2023-03-29T01:06:56.459Z,101283.84
2023-03-29T01:09:23.258Z,101280.06
2023-03-29T01:11:50.032Z,101285.97
2023-03-29T01:14:16.786Z,101272.88
2023-03-29T01:16:43.597Z,101264.41
2023-03-29T01:19:10.369Z,101269.88
2023-03-29T01:21:37.743Z,101263.31
2023-03-29T01:24:06.567Z,101267.34
2023-03-29T01:26:33.354Z,101260.34
2023-03-29T01:29:00.117Z,101253.34
2023-03-29T01:31:26.894Z,101247.41
2023-03-29T01:33:53.703Z,101237.31
2023-03-29T01:36:20.519Z,101238.84
2023-03-29T01:38:48.280Z,101240.41
2023-03-29T01:41:15.079Z,101233.56
2023-03-29T01:43:41.861Z,101230.47
2023-03-29T01:46:08.626Z,101229.69
2023-03-29T01:48:35.451Z,101219.78
2023-03-29T01:51:04.372Z,101214.31
2023-03-29T01:53:31.464Z,101218.13
2023-03-29T01:55:58.248Z,101214.53
2023-03-29T01:58:25.007Z,101210.09
2023-03-29T02:00:53.882Z,101203.94
2023-03-29T02:03:21.812Z,101202.41
2023-03-29T02:05:48.974Z,101202.59
2023-03-29T02:08:15.920Z,101198.16
2023-03-29T02:10:42.748Z,101198.59
2023-03-29T02:13:09.483Z,101197.50
2023-03-29T02:15:36.272Z,101189.47
2023-03-29T02:18:03.933Z,101193.19
2023-03-29T02:20:31.406Z,101198.72
2023-03-29T02:22:58.369Z,101193.34
2023-03-29T02:25:25.862Z,101193.28
2023-03-29T02:27:52.669Z,101186.13
2023-03-29T02:30:20.594Z,101182.06
2023-03-29T02:32:48.841Z,101180.66
2023-03-29T02:35:15.742Z,101177.31
2023-03-29T02:37:43.012Z,101176.47
2023-03-29T02:40:12.351Z,101172.69
2023-03-29T02:42:39.087Z,101169.47
2023-03-29T02:45:05.829Z,101171.41
2023-03-29T02:47:32.690Z,101171.75
2023-03-29T02:49:59.508Z,101171.34
2023-03-29T02:52:26.324Z,101169.44
2023-03-29T02:54:54.284Z,101165.81
2023-03-29T02:57:26.278Z,101166.63
2023-03-29T02:59:53.143Z,101167.47
2023-03-29T03:02:19.978Z,101155.56
2023-03-29T03:04:46.890Z,101152.38
2023-03-29T03:07:13.652Z,101148.28
2023-03-29T03:09:40.455Z,101140.72
2023-03-29T03:12:07.509Z,101135.69
2023-03-29T03:14:34.295Z,101132.22
2023-03-29T03:17:03.875Z,101132.88
2023-03-29T03:19:31.498Z,101127.47
2023-03-29T03:21:59.527Z,101122.63
2023-03-29T03:24:27.970Z,101123.03
2023-03-29T03:26:55.267Z,101113.94
2023-03-29T03:29:22.057Z,101112.22
2023-03-29T03:31:49.073Z,101114.72
2023-03-29T03:34:17.320Z,101108.72
2023-03-29T03:36:44.075Z,101116.34
2023-03-29T03:39:11.719Z,101118.00
2023-03-29T03:41:38.674Z,101116.34
2023-03-29T03:44:05.516Z,101115.03
2023-03-29T03:46:32.303Z,101124.72
2023-03-29T03:48:59.524Z,101119.22
2023-03-29T03:51:26.994Z,101129.81
2023-03-29T03:53:53.772Z,101118.13
2023-03-29T03:56:20.543Z,101125.06
2023-03-29T03:58:47.492Z,101105.53
2023-03-29T04:01:14.262Z,101098.50
2023-03-29T04:03:41.184Z,101097.19
2023-03-29T04:06:08.088Z,101093.19
2023-03-29T04:08:35.021Z,101102.97
2023-03-29T04:11:01.948Z,101096.63
2023-03-29T04:13:29.259Z,101099.16
2023-03-29T04:15:58.806Z,101100.78
2023-03-29T04:18:27.407Z,101108.84
2023-03-29T04:20:54.255Z,101094.00
2023-03-29T04:23:21.026Z,101102.47
2023-03-29T04:25:47.787Z,101098.19
2023-03-29T04:28:14.544Z,101094.75
2023-03-29T04:30:41.302Z,101101.28
2023-03-29T04:33:08.126Z,101093.44
2023-03-29T04:35:34.988Z,101088.97
2023-03-29T04:38:01.996Z,101083.22
2023-03-29T04:40:29.006Z,101096.72
2023-03-29T04:42:55.819Z,101095.94
2023-03-29T04:45:22.617Z,101089.72
2023-03-29T04:47:49.692Z,101104.53
2023-03-29T04:50:16.496Z,101089.84
2023-03-29T04:52:45.247Z,101079.47
2023-03-29T04:55:12.643Z,101089.09
2023-03-29T04:57:39.555Z,101087.38
2023-03-29T05:00:14.661Z,101082.69
2023-03-29T05:02:41.697Z,101079.28
2023-03-29T05:05:08.487Z,101077.16
2023-03-29T05:07:35.617Z,101073.69
2023-03-29T05:10:02.369Z,101072.81
2023-03-29T05:12:29.108Z,101074.53
2023-03-29T05:14:56.759Z,101076.16
2023-03-29T05:17:23.901Z,101067.66
2023-03-29T05:19:50.706Z,101062.59
2023-03-29T05:22:17.480Z,101057.88
2023-03-29T05:24:44.406Z,101053.16
2023-03-29T05:27:11.659Z,101050.00
2023-03-29T05:29:38.430Z,101056.13
2023-03-29T05:32:05.393Z,101046.41
2023-03-29T05:34:32.210Z,101055.03
2023-03-29T05:36:59.131Z,101055.69
2023-03-29T05:39:25.930Z,101057.94
2023-03-29T05:41:52.975Z,101053.16
2023-03-29T05:44:19.767Z,101048.88
2023-03-29T05:46:46.935Z,101043.38
2023-03-29T05:49:13.815Z,101050.94
2023-03-29T05:51:41.940Z,101045.84
2023-03-29T05:54:08.849Z,101048.31
2023-03-29T05:56:35.741Z,101046.59
2023-03-29T05:59:02.635Z,101047.41
2023-03-29T06:01:29.366Z,101054.97
2023-03-29T06:03:57.343Z,101052.88
2023-03-29T06:06:24.200Z,101051.97
2023-03-29T06:08:51.061Z,101051.94
2023-03-29T06:11:17.805Z,101054.81
2023-03-29T06:13:44.593Z,101047.13
2023-03-29T06:16:12.855Z,101046.53
2023-03-29T06:18:40.140Z,101038.22
2023-03-29T06:21:09.110Z,101041.19
2023-03-29T06:23:36.304Z,101044.06
2023-03-29T06:26:03.377Z,101046.78
2023-03-29T06:28:30.550Z,101053.09
2023-03-29T06:31:02.921Z,101043.56
2023-03-29T06:33:32.221Z,101049.19
2023-03-29T06:35:59.117Z,101048.31
2023-03-29T06:38:27.944Z,101053.53
2023-03-29T06:40:54.704Z,101055.41
2023-03-29T06:43:21.571Z,101050.31
2023-03-29T06:45:48.322Z,101049.41
2023-03-29T06:48:15.146Z,101047.56
2023-03-29T06:50:41.920Z,101052.28
2023-03-29T06:53:08.728Z,101050.00
2023-03-29T06:55:36.045Z,101042.25
2023-03-29T06:58:04.091Z,101038.63
2023-03-29T07:00:35.760Z,101039.44
2023-03-29T07:03:02.698Z,101036.19
2023-03-29T07:05:30.048Z,101035.31
2023-03-29T07:07:57.279Z,101043.38
2023-03-29T07:10:24.203Z,101037.97
2023-03-29T07:12:51.448Z,101045.50
2023-03-29T07:15:18.276Z,101046.31
2023-03-29T07:17:45.627Z,101060.19
2023-03-29T07:20:13.863Z,101060.78
2023-03-29T07:22:40.775Z,101050.47
2023-03-29T07:25:09.249Z,101059.28
2023-03-29T07:27:36.020Z,101060.03
2023-03-29T07:30:04.110Z,101062.78
2023-03-29T07:32:31.319Z,101062.97
2023-03-29T07:34:58.321Z,101052.81
2023-03-29T07:37:25.122Z,101054.47
2023-03-29T07:39:52.236Z,101059.91
2023-03-29T07:42:18.991Z,101058.25
2023-03-29T07:44:45.856Z,101055.34
2023-03-29T07:47:13.247Z,101045.97
2023-03-29T07:49:40.068Z,101052.66
2023-03-29T07:52:07.101Z,101050.13
2023-03-29T07:54:34.367Z,101052.94
2023-03-29T07:57:01.214Z,101045.53
2023-03-29T07:59:27.983Z,101041.06
2023-03-29T08:01:55.286Z,101050.97
2023-03-29T08:04:22.170Z,101042.44
2023-03-29T08:06:49.031Z,101050.22
2023-03-29T08:09:16.454Z,101049.03
2023-03-29T08:11:43.225Z,101057.75
2023-03-29T08:14:10.137Z,101044.34
2023-03-29T08:16:36.955Z,101043.28
2023-03-29T08:19:03.719Z,101046.88
2023-03-29T08:21:30.470Z,101040.66
2023-03-29T08:23:57.599Z,101034.25
2023-03-29T08:26:24.396Z,101041.19
2023-03-29T08:28:51.419Z,101036.13
2023-03-29T08:31:18.483Z,101029.53
2023-03-29T08:33:45.301Z,101035.28
2023-03-29T08:36:12.302Z,101020.56
2023-03-29T08:38:39.132Z,101024.84
2023-03-29T08:41:06.027Z,101016.78
2023-03-29T08:43:32.809Z,101020.53
2023-03-29T08:46:00.030Z,101019.88
2023-03-29T08:48:28.300Z,101020.00
2023-03-29T08:50:55.205Z,101019.94
2023-03-29T08:53:21.989Z,101025.84
2023-03-29T08:55:48.872Z,101023.66
2023-03-29T08:58:15.736Z,101021.03
2023-03-29T09:00:42.767Z,101019.81
2023-03-29T09:03:09.621Z,101015.91
2023-03-29T09:05:36.987Z,101018.44
2023-03-29T09:08:03.801Z,101010.84
2023-03-29T09:10:30.877Z,101010.53
2023-03-29T09:12:57.681Z,101007.00
2023-03-29T09:15:24.854Z,100996.13
2023-03-29T09:17:51.661Z,101009.84
2023-03-29T09:20:18.487Z,101012.13
2023-03-29T09:22:45.430Z,101014.31
2023-03-29T09:25:12.203Z,101012.81
2023-03-29T09:27:38.989Z,101008.31
2023-03-29T09:30:06.090Z,101007.59
2023-03-29T09:32:33.014Z,101005.44
2023-03-29T09:34:59.882Z,101009.19
2023-03-29T09:37:26.666Z,101009.38
2023-03-29T09:39:53.477Z,101001.97
2023-03-29T09:42:20.265Z,100994.25
2023-03-29T09:44:47.310Z,100990.56
2023-03-29T09:47:14.038Z,100986.44
2023-03-29T09:49:40.848Z,100986.56
2023-03-29T09:52:07.607Z,100990.19
2023-03-29T09:54:34.379Z,100993.44
2023-03-29T09:57:01.874Z,100991.06
2023-03-29T09:59:28.989Z,100992.94
2023-03-29T10:01:55.928Z,100992.69
2023-03-29T10:04:22.797Z,100995.13
2023-03-29T10:06:50.259Z,100987.72
2023-03-29T10:09:17.025Z,100972.84
2023-03-29T10:11:46.609Z,100982.84
2023-03-29T10:14:13.445Z,100972.50
2023-03-29T10:16:41.157Z,100970.09
2023-03-29T10:19:07.947Z,100969.03
2023-03-29T10:21:34.733Z,100959.31
2023-03-29T10:24:01.830Z,100957.47
2023-03-29T10:26:28.600Z,100956.94
2023-03-29T10:28:57.144Z,100955.09
2023-03-29T10:31:24.038Z,100950.50
2023-03-29T10:33:51.023Z,100951.94
2023-03-29T10:36:18.044Z,100949.50
2023-03-29T10:38:44.973Z,100950.75
2023-03-29T10:41:11.988Z,100955.06
2023-03-29T10:43:38.793Z,100952.47
2023-03-29T10:46:05.914Z,100953.91
2023-03-29T10:48:32.710Z,100948.34
2023-03-29T10:50:59.589Z,100935.31
2023-03-29T10:53:26.530Z,100939.91
2023-03-29T10:55:53.404Z,100938.59
2023-03-29T10:58:20.274Z,100934.81
2023-03-29T11:00:47.572Z,100934.28
2023-03-29T11:03:17.048Z,100928.72
2023-03-29T11:05:44.974Z,100930.25
2023-03-29T11:08:11.728Z,100918.72
2023-03-29T11:10:38.498Z,100922.16
2023-03-29T11:13:05.738Z,100926.09
2023-03-29T11:15:32.979Z,100919.06
2023-03-29T11:17:59.794Z,100916.63
2023-03-29T11:20:26.920Z,100917.38
2023-03-29T11:22:53.824Z,100910.56
2023-03-29T11:25:20.631Z,100899.06
2023-03-29T11:27:47.445Z,100906.91
2023-03-29T11:30:14.603Z,100903.53
2023-03-29T11:32:41.951Z,100902.38
2023-03-29T11:35:08.766Z,100910.91
2023-03-29T11:37:35.606Z,100905.47
2023-03-29T11:40:02.370Z,100897.78
2023-03-29T11:42:29.458Z,100904.97
2023-03-29T11:46:02.595Z,100893.50
2023-03-29T11:48:29.702Z,100893.22
2023-03-29T11:50:56.486Z,100900.34
2023-03-29T11:53:23.239Z,100902.25
2023-03-29T11:55:50.001Z,100896.28
2023-03-29T11:58:16.754Z,100887.75
2023-03-29T12:00:43.523Z,100889.47
2023-03-29T12:03:10.393Z,100887.13
2023-03-29T12:05:37.261Z,100885.00
2023-03-29T12:08:04.015Z,100885.72
2023-03-29T12:10:30.857Z,100879.28
2023-03-29T12:13:00.579Z,100871.56
2023-03-29T12:15:27.348Z,100860.50
2023-03-29T12:17:54.264Z,100870.59
2023-03-29T12:20:23.416Z,100862.88
2023-03-29T12:22:50.861Z,100857.38
2023-03-29T12:25:18.829Z,100860.22
2023-03-29T12:27:46.715Z,100865.94
2023-03-29T12:30:13.482Z,100861.63
2023-03-29T12:32:40.293Z,100868.41
2023-03-29T12:35:07.314Z,100865.91
2023-03-29T12:37:35.801Z,100859.38
2023-03-29T12:40:02.678Z,100869.91
2023-03-29T12:42:29.531Z,100875.19
2023-03-29T12:44:56.374Z,100870.50
2023-03-29T12:47:23.494Z,100867.81
2023-03-29T12:49:50.248Z,100864.00
2023-03-29T12:52:17.025Z,100853.81
2023-03-29T12:54:43.940Z,100845.25
2023-03-29T12:57:10.851Z,100844.66
2023-03-29T12:59:37.922Z,100847.00
2023-03-29T13:02:08.551Z,100840.25
2023-03-29T13:04:36.121Z,100842.59
2023-03-29T13:07:03.420Z,100838.91
2023-03-29T13:09:30.256Z,100838.25
2023-03-29T13:11:57.155Z,100829.47
2023-03-29T13:14:23.914Z,100828.09
2023-03-29T13:16:50.792Z,100829.22
2023-03-29T13:19:17.552Z,100818.69
2023-03-29T13:21:44.341Z,100819.41
2023-03-29T13:24:11.169Z,100822.00
2023-03-29T13:26:37.941Z,100817.25
2023-03-29T13:29:04.685Z,100818.53
2023-03-29T13:31:31.561Z,100816.19
2023-03-29T13:33:58.346Z,100807.91
2023-03-29T13:36:25.178Z,100809.97
2023-03-29T13:38:52.005Z,100807.47
2023-03-29T13:41:18.752Z,100815.13
2023-03-29T13:43:45.554Z,100822.00
2023-03-29T13:46:12.470Z,100816.50
2023-03-29T13:48:39.337Z,100814.34
2023-03-29T13:51:08.199Z,100810.81
2023-03-29T13:53:35.018Z,100815.75
2023-03-29T13:56:02.903Z,100808.53
2023-03-29T13:58:30.010Z,100805.44
2023-03-29T14:00:56.948Z,100802.25
2023-03-29T14:03:29.555Z,100805.09
2023-03-29T14:05:56.387Z,100804.13
2023-03-29T14:08:23.153Z,100796.97
2023-03-29T14:10:49.920Z,100798.31
2023-03-29T14:13:16.835Z,100807.69
2023-03-29T14:15:43.668Z,100800.09
2023-03-29T14:18:10.711Z,100795.78
2023-03-29T14:20:37.513Z,100802.25
2023-03-29T14:23:04.285Z,100804.44
2023-03-29T14:25:31.047Z,100798.00
2023-03-29T14:27:57.815Z,100794.94
2023-03-29T14:30:24.860Z,100786.66
2023-03-29T14:32:52.322Z,100783.72
2023-03-29T14:35:19.151Z,100768.84
2023-03-29T14:37:46.339Z,100771.66
2023-03-29T14:40:15.234Z,100759.81
2023-03-29T14:42:42.410Z,100772.44
2023-03-29T14:45:09.710Z,100764.31
2023-03-29T14:47:36.744Z,100772.72
2023-03-29T14:50:03.853Z,100765.50
2023-03-29T14:52:30.736Z,100761.75
2023-03-29T14:54:57.572Z,100761.88
2023-03-29T14:57:24.422Z,100744.13
2023-03-29T14:59:51.600Z,100753.22
2023-03-29T15:02:18.423Z,100751.31
2023-03-29T15:04:45.155Z,100746.53
2023-03-29T15:07:11.964Z,100749.63
2023-03-29T15:09:39.856Z,100744.78
2023-03-29T15:12:06.594Z,100748.09
2023-03-29T15:14:37.889Z,100748.22
2023-03-29T15:17:04.636Z,100745.72
2023-03-29T15:19:31.828Z,100750.91
2023-03-29T15:21:59.947Z,100737.66
2023-03-29T15:24:28.531Z,100740.19
2023-03-29T15:26:55.502Z,100736.72
2023-03-29T15:29:25.863Z,100737.75
2023-03-29T15:31:52.721Z,100737.53
2023-03-29T15:34:19.676Z,100738.91
2023-03-29T15:36:47.184Z,100745.59
2023-03-29T15:39:13.985Z,100740.75
2023-03-29T15:41:40.985Z,100737.34
2023-03-29T15:44:07.842Z,100741.72
2023-03-29T15:46:34.624Z,100738.19
2023-03-29T15:49:01.367Z,100728.97
2023-03-29T15:51:28.139Z,100726.25
2023-03-29T15:53:55.116Z,100728.06
2023-03-29T15:56:22.802Z,100731.94
2023-03-29T15:58:49.597Z,100727.16
2023-03-29T16:01:19.028Z,100728.50
2023-03-29T16:03:47.872Z,100724.88
2023-03-29T16:06:15.033Z,100726.63
2023-03-29T16:08:41.929Z,100723.63
2023-03-29T16:11:09.037Z,100719.72
2023-03-29T16:13:35.834Z,100722.13
2023-03-29T16:16:02.894Z,100709.84
2023-03-29T16:18:30.004Z,100718.16
2023-03-29T16:20:56.989Z,100714.31
2023-03-29T16:23:23.760Z,100711.34
2023-03-29T16:25:50.699Z,100718.66
2023-03-29T16:28:17.519Z,100708.19
2023-03-29T16:30:44.282Z,100712.53
2023-03-29T16:33:11.233Z,100717.44
2023-03-29T16:35:38.197Z,100719.75
2023-03-29T16:38:05.120Z,100725.16
2023-03-29T16:40:33.064Z,100722.81
2023-03-29T16:42:59.929Z,100718.59
2023-03-29T16:45:27.155Z,100710.44
2023-03-29T16:47:54.454Z,100713.06
2023-03-29T16:50:21.832Z,100715.53
2023-03-29T16:52:48.764Z,100714.44
2023-03-29T16:55:15.692Z,100712.47
2023-03-29T16:57:42.492Z,100717.28
2023-03-29T17:00:10.727Z,100709.75
2023-03-29T17:02:37.589Z,100708.19
2023-03-29T17:05:04.444Z,100705.31
2023-03-29T17:07:31.273Z,100701.53
2023-03-29T17:09:58.316Z,100711.38
2023-03-29T17:12:25.360Z,100707.03
2023-03-29T17:14:52.552Z,100698.94
2023-03-29T17:17:19.304Z,100706.16
2023-03-29T17:19:46.099Z,100700.56
2023-03-29T17:22:12.895Z,100694.75
2023-03-29T17:24:39.651Z,100697.03
2023-03-29T17:27:06.442Z,100708.66
2023-03-29T17:29:33.197Z,100701.00
2023-03-29T17:31:59.976Z,100708.47
2023-03-29T17:34:28.856Z,100709.22
2023-03-29T17:36:55.690Z,100702.47
2023-03-29T17:39:24.950Z,100700.34
2023-03-29T17:41:51.870Z,100690.78
2023-03-29T17:44:18.682Z,100695.47
2023-03-29T17:46:45.950Z,100690.09
2023-03-29T17:49:12.790Z,100700.31
2023-03-29T17:51:39.547Z,100689.69
2023-03-29T17:54:06.672Z,100692.16
2023-03-29T17:56:33.831Z,100697.25
2023-03-29T17:59:00.852Z,100697.75
2023-03-29T18:01:28.125Z,100691.91
2023-03-29T18:03:55.005Z,100702.94
2023-03-29T18:06:21.814Z,100703.53
2023-03-29T18:08:48.584Z,100701.84
2023-03-29T18:11:16.007Z,100708.22
2023-03-29T18:13:44.275Z,100694.28
2023-03-29T18:16:11.068Z,100696.31
2023-03-29T18:18:38.356Z,100696.31
2023-03-29T18:21:06.798Z,100697.81
2023-03-29T18:23:33.863Z,100692.13
2023-03-29T18:26:02.886Z,100699.59
2023-03-29T18:28:29.862Z,100694.28
2023-03-29T18:30:56.628Z,100688.66
2023-03-29T18:33:23.386Z,100684.44
2023-03-29T18:35:51.006Z,100688.00
2023-03-29T18:38:17.765Z,100690.06
2023-03-29T18:40:44.555Z,100680.97
2023-03-29T18:43:11.312Z,100684.28
2023-03-29T18:45:38.123Z,100683.00
2023-03-29T18:48:05.580Z,100682.31
2023-03-29T18:50:32.397Z,100689.09
2023-03-29T18:52:59.163Z,100678.03
2023-03-29T18:55:25.957Z,100682.34
2023-03-29T18:57:52.744Z,100681.91
2023-03-29T19:00:19.885Z,100673.22
2023-03-29T19:02:46.736Z,100679.69
2023-03-29T19:05:13.732Z,100680.38
2023-03-29T19:07:40.521Z,100669.44
2023-03-29T19:10:07.687Z,100665.38
2023-03-29T19:12:35.233Z,100667.88
2023-03-29T19:15:02.081Z,100662.53
2023-03-29T19:17:28.997Z,100668.31
2023-03-29T19:19:56.669Z,100668.28
2023-03-29T19:22:23.430Z,100668.91
2023-03-29T19:24:50.327Z,100668.19
2023-03-29T19:27:17.105Z,100660.66
2023-03-29T19:29:43.851Z,100662.50
2023-03-29T19:32:10.880Z,100666.34
2023-03-29T19:34:37.657Z,100665.50
2023-03-29T19:37:04.378Z,100664.94
2023-03-29T19:39:31.173Z,100656.66
2023-03-29T19:41:57.976Z,100660.22
2023-03-29T19:44:24.810Z,100646.03
2023-03-29T19:46:51.696Z,100650.47
2023-03-29T19:49:18.810Z,100662.88
2023-03-29T19:51:45.933Z,100634.69
2023-03-29T19:54:13.168Z,100646.81
2023-03-29T19:56:39.995Z,100645.69
2023-03-29T19:59:06.850Z,100647.47
2023-03-29T20:01:33.817Z,100638.59
2023-03-29T20:04:01.626Z,100640.41
2023-03-29T20:06:28.573Z,100642.31
2023-03-29T20:08:56.328Z,100636.81
2023-03-29T20:11:24.210Z,100647.25
2023-03-29T20:13:51.008Z,100634.91
2023-03-29T20:16:18.102Z,100630.06
2023-03-29T20:18:45.097Z,100631.25
2023-03-29T20:21:13.849Z,100618.81
2023-03-29T20:23:41.111Z,100611.56
2023-03-29T20:26:08.323Z,100603.34
2023-03-29T20:28:37.410Z,100602.16
2023-03-29T20:31:04.417Z,100603.34
2023-03-29T20:33:31.607Z,100605.25
2023-03-29T20:35:58.505Z,100610.06
2023-03-29T20:38:25.821Z,100600.59
2023-03-29T20:40:53.392Z,100594.47
2023-03-29T20:43:20.177Z,100580.84
2023-03-29T20:45:53.851Z,100584.97
2023-03-29T20:48:22.800Z,100583.44
2023-03-29T20:50:49.966Z,100574.16
2023-03-29T20:53:18.002Z,100582.25
2023-03-29T20:55:44.810Z,100568.56
2023-03-29T20:58:11.633Z,100571.00
2023-03-29T21:00:38.422Z,100565.88
2023-03-29T21:03:05.242Z,100564.13
2023-03-29T21:05:32.160Z,100562.47
2023-03-29T21:07:58.937Z,100560.56
2023-03-29T21:10:25.715Z,100559.50
2023-03-29T21:12:54.139Z,100550.09
2023-03-29T21:15:20.912Z,100547.34
2023-03-29T21:17:47.789Z,100545.91
2023-03-29T21:20:14.609Z,100537.41
2023-03-29T21:22:42.902Z,100547.66
2023-03-29T21:25:10.005Z,100548.72
2023-03-29T21:27:36.764Z,100542.75
2023-03-29T21:30:03.585Z,100539.25
2023-03-29T21:32:31.291Z,100536.25
2023-03-29T21:34:58.117Z,100534.47
2023-03-29T21:37:24.899Z,100536.03
2023-03-29T21:39:51.763Z,100527.88
2023-03-29T21:42:18.622Z,100527.72
2023-03-29T21:44:45.500Z,100526.38
2023-03-29T21:47:12.239Z,100530.53
2023-03-29T21:49:39.545Z,100525.75
2023-03-29T21:52:07.047Z,100526.00
2023-03-29T21:54:33.856Z,100525.53
2023-03-29T21:57:00.667Z,100519.38
2023-03-29T21:59:27.825Z,100522.25
2023-03-29T22:01:54.740Z,100506.50
2023-03-29T22:04:35.409Z,100503.75
2023-03-29T22:07:03.691Z,100507.25
2023-03-29T22:09:30.477Z,100507.00
2023-03-29T22:11:59.558Z,100512.06
2023-03-29T22:14:28.385Z,100506.69
2023-03-29T22:16:55.354Z,100505.63
2023-03-29T22:19:22.327Z,100500.25
2023-03-29T22:21:49.146Z,100496.03
2023-03-29T22:24:15.909Z,100477.72
2023-03-29T22:26:44.753Z,100483.00
2023-03-29T22:29:11.814Z,100478.91
2023-03-29T22:31:39.295Z,100480.34
2023-03-29T22:34:06.497Z,100480.72
2023-03-29T22:36:33.403Z,100476.19
2023-03-29T22:39:00.306Z,100477.00
2023-03-29T22:41:28.064Z,100481.28
2023-03-29T22:43:54.861Z,100479.53
2023-03-29T22:46:21.685Z,100477.50
2023-03-29T22:48:48.605Z,100476.91
2023-03-29T22:51:16.048Z,100472.97
2023-03-29T22:53:42.790Z,100473.88
2023-03-29T22:56:09.591Z,100459.94
2023-03-29T22:58:36.819Z,100464.88
2023-03-29T23:01:03.752Z,100456.84
2023-03-29T23:03:30.929Z,100454.00
2023-03-29T23:05:57.767Z,100462.38
2023-03-29T23:08:24.698Z,100459.03
2023-03-29T23:10:51.462Z,100450.78
2023-03-29T23:13:23.936Z,100446.97
2023-03-29T23:15:50.735Z,100443.03
2023-03-29T23:18:19.614Z,100440.28
2023-03-29T23:20:47.120Z,100440.72
2023-03-29T23:23:14.211Z,100435.56
2023-03-29T23:25:41.311Z,100444.31
2023-03-29T23:28:08.253Z,100438.56
2023-03-29T23:30:36.986Z,100419.84
2023-03-29T23:33:03.807Z,100383.94
2023-03-29T23:35:30.749Z,100404.56
2023-03-29T23:37:58.151Z,100402.09
2023-03-29T23:40:24.943Z,100393.38
2023-03-29T23:42:52.893Z,100386.72
2023-03-29T23:45:19.650Z,100385.22
2023-03-29T23:47:46.489Z,100381.97
2023-03-29T23:50:13.663Z,100376.22
2023-03-29T23:52:40.588Z,100380.34
2023-03-29T23:55:07.358Z,100374.28
2023-03-29T23:57:35.015Z,100379.56
